createdAt,value
2023-04-02T00:00:01.363Z,7.70
2023-04-02T00:02:35.489Z,7.47
2023-04-02T00:05:19.462Z,6.65
2023-04-02T00:07:58.114Z,6.30
2023-04-02T00:10:31.277Z,6.32
2023-04-02T00:13:05.171Z,7.47
2023-04-02T00:15:36.286Z,7.00
2023-04-02T00:18:06.176Z,6.65
2023-04-02T00:20:39.158Z,6.25
2023-04-02T00:23:07.756Z,6.93
2023-04-02T00:25:44.631Z,6.55
2023-04-02T00:28:14.780Z,6.88
2023-04-02T00:30:57.146Z,6.63
2023-04-02T00:33:27.746Z,7.40
2023-04-02T00:35:56.883Z,7.68
2023-04-02T00:38:33.353Z,7.13
2023-04-02T00:41:05.219Z,6.65
2023-04-02T00:43:35.953Z,7.13
2023-04-02T00:46:07.032Z,7.20
2023-04-02T00:48:42.204Z,6.43
2023-04-02T00:51:30.867Z,5.90
2023-04-02T00:54:01.512Z,6.20
2023-04-02T00:56:41.412Z,7.20
2023-04-02T00:59:21.898Z,6.85
2023-04-02T01:01:54.179Z,7.63
2023-04-02T01:04:37.075Z,7.22
2023-04-02T01:07:10.483Z,8.63
2023-04-02T01:09:38.493Z,8.37
2023-04-02T01:12:16.486Z,7.85
2023-04-02T01:15:01.014Z,9.52
2023-04-02T01:17:48.965Z,9.90
2023-04-02T01:20:17.243Z,10.07
2023-04-02T01:23:05.756Z,9.10
2023-04-02T01:25:41.848Z,8.07
2023-04-02T01:28:29.532Z,9.00
2023-04-02T01:30:58.829Z,8.73
2023-04-02T01:33:30.956Z,9.45
2023-04-02T01:36:18.454Z,8.73
2023-04-02T01:38:55.828Z,9.30
2023-04-02T01:41:31.964Z,8.15
2023-04-02T01:44:12.112Z,7.40
2023-04-02T01:46:41.864Z,8.93
2023-04-02T01:49:15.926Z,8.38
2023-04-02T01:51:45.521Z,7.97
2023-04-02T01:54:18.941Z,7.45
2023-04-02T01:56:48.240Z,7.28
2023-04-02T01:59:18.406Z,5.05
2023-04-02T02:02:22.589Z,6.57
2023-04-02T02:04:51.528Z,6.95
2023-04-02T02:07:21.105Z,6.22
2023-04-02T02:09:54.403Z,6.93
2023-04-02T02:12:23.769Z,7.18
2023-04-02T02:14:52.558Z,6.35
2023-04-02T02:17:34.410Z,7.55
2023-04-02T02:20:06.662Z,6.45
2023-04-02T02:22:39.636Z,6.93
2023-04-02T02:25:15.655Z,9.15
2023-04-02T02:27:46.364Z,7.85
2023-04-02T02:30:18.211Z,7.57
2023-04-02T02:33:14.522Z,7.10
2023-04-02T02:35:56.262Z,7.53
2023-04-02T02:38:33.307Z,7.40
2023-04-02T02:41:12.140Z,7.15
2023-04-02T02:43:42.995Z,6.18
2023-04-02T02:46:16.920Z,7.28
2023-04-02T02:48:48.507Z,7.80
2023-04-02T02:51:20.569Z,6.55
2023-04-02T02:53:53.166Z,5.27
2023-04-02T02:56:24.439Z,7.18
2023-04-02T02:58:55.030Z,5.85
2023-04-02T03:01:31.326Z,7.32
2023-04-02T03:04:06.137Z,6.75
2023-04-02T03:06:36.574Z,6.70
2023-04-02T03:09:13.494Z,7.13
2023-04-02T03:11:48.966Z,7.05
2023-04-02T03:14:21.641Z,6.78
2023-04-02T03:16:53.842Z,6.82
2023-04-02T03:19:29.213Z,6.30
2023-04-02T03:22:09.665Z,7.15
2023-04-02T03:25:03.969Z,6.63
2023-04-02T03:27:36.168Z,5.10
2023-04-02T03:30:05.339Z,6.25
2023-04-02T03:32:49.622Z,6.07
2023-04-02T03:35:27.428Z,6.33
2023-04-02T03:37:59.846Z,6.88
2023-04-02T03:40:47.736Z,7.72
2023-04-02T03:43:15.960Z,6.93
2023-04-02T03:45:48.962Z,6.85
2023-04-02T03:48:40.743Z,8.15
2023-04-02T03:51:17.936Z,7.00
2023-04-02T03:53:49.901Z,6.93
2023-04-02T03:56:40.976Z,7.50
2023-04-02T03:59:23.278Z,7.60
2023-04-02T04:02:01.451Z,7.90
2023-04-02T04:04:33.620Z,6.70
2023-04-02T04:07:02.796Z,7.32
2023-04-02T04:09:36.539Z,7.82
2023-04-02T04:12:23.980Z,8.35
2023-04-02T04:15:06.965Z,9.10
2023-04-02T04:18:02.651Z,7.00
2023-04-02T04:20:46.101Z,8.90
2023-04-02T04:23:25.762Z,7.22
2023-04-02T04:26:05.450Z,8.43
2023-04-02T04:28:58.500Z,8.05
2023-04-02T04:31:33.993Z,8.75
2023-04-02T04:34:07.212Z,7.25
2023-04-02T04:36:54.146Z,8.38
2023-04-02T04:39:30.648Z,8.55
2023-04-02T04:42:05.132Z,7.85
2023-04-02T04:44:40.690Z,8.02
2023-04-02T04:47:21.561Z,8.50
2023-04-02T04:49:59.205Z,9.20
2023-04-02T04:52:30.506Z,9.35
2023-04-02T04:55:01.805Z,7.93
2023-04-02T04:57:39.145Z,9.75
2023-04-02T05:00:14.419Z,8.65
2023-04-02T05:03:17.404Z,9.18
2023-04-02T05:05:46.083Z,8.95
2023-04-02T05:08:21.039Z,9.07
2023-04-02T05:10:51.920Z,8.77
2023-04-02T05:13:26.303Z,7.90
2023-04-02T05:16:05.633Z,8.55
2023-04-02T05:18:40.247Z,9.23
2023-04-02T05:21:28.311Z,10.20
2023-04-02T05:24:15.276Z,9.85
2023-04-02T05:26:46.533Z,9.50
2023-04-02T05:29:17.865Z,10.93
2023-04-02T05:32:04.690Z,8.40
2023-04-02T05:34:36.316Z,9.52
2023-04-02T05:37:09.158Z,11.35
2023-04-02T05:39:38.908Z,11.27
2023-04-02T05:42:09.249Z,12.55
2023-04-02T05:45:18.974Z,11.77
2023-04-02T05:47:51.835Z,12.43
2023-04-02T05:50:51.165Z,11.77
2023-04-02T05:53:26.070Z,11.43
2023-04-02T05:56:03.965Z,10.15
2023-04-02T05:58:45.627Z,12.25
2023-04-02T06:01:30.760Z,11.13
2023-04-02T06:04:03.275Z,11.32
2023-04-02T06:06:41.342Z,12.40
2023-04-02T06:09:12.993Z,11.52
2023-04-02T06:11:45.457Z,11.07
2023-04-02T06:14:18.833Z,10.75
2023-04-02T06:16:50.065Z,10.75
2023-04-02T06:19:27.232Z,10.65
2023-04-02T06:22:08.921Z,11.32
2023-04-02T06:24:40.850Z,11.75
2023-04-02T06:27:12.926Z,11.20
2023-04-02T06:29:45.579Z,11.50
2023-04-02T06:32:19.327Z,11.98
2023-04-02T06:34:47.744Z,11.98
2023-04-02T06:37:23.462Z,11.30
2023-04-02T06:39:59.642Z,12.05
2023-04-02T06:42:38.359Z,9.60
2023-04-02T06:45:41.273Z,9.73
2023-04-02T06:48:18.119Z,10.15
2023-04-02T06:50:49.576Z,10.43
2023-04-02T06:53:45.813Z,9.82
2023-04-02T06:56:23.198Z,9.13
2023-04-02T06:58:51.604Z,9.45
2023-04-02T07:01:29.049Z,9.35
2023-04-02T07:04:00.901Z,9.85
2023-04-02T07:06:39.878Z,9.25
2023-04-02T07:09:14.687Z,9.38
2023-04-02T07:11:48.366Z,9.13
2023-04-02T07:14:19.809Z,9.18
2023-04-02T07:16:50.460Z,10.20
2023-04-02T07:19:21.811Z,8.77
2023-04-02T07:21:54.072Z,8.52
2023-04-02T07:24:26.314Z,8.52
2023-04-02T07:26:57.649Z,9.88
2023-04-02T07:29:26.134Z,8.25
2023-04-02T07:31:54.700Z,8.48
2023-04-02T07:34:24.783Z,8.57
2023-04-02T07:36:55.904Z,8.75
2023-04-02T07:39:24.501Z,8.32
2023-04-02T07:41:53.820Z,7.93
2023-04-02T07:44:23.005Z,6.97
2023-04-02T07:46:51.753Z,7.97
2023-04-02T07:49:20.559Z,7.15
2023-04-02T07:51:49.496Z,5.97
2023-04-02T07:54:17.843Z,7.60
2023-04-02T07:56:47.034Z,7.47
2023-04-02T07:59:19.062Z,6.63
2023-04-02T08:01:48.333Z,7.40
2023-04-02T08:04:18.489Z,7.22
2023-04-02T08:06:47.933Z,6.30
2023-04-02T08:09:17.140Z,7.47
2023-04-02T08:11:46.761Z,6.50
2023-04-02T08:14:18.726Z,5.80
2023-04-02T08:16:47.498Z,7.40
2023-04-02T08:19:16.555Z,6.18
2023-04-02T08:21:44.815Z,5.78
2023-04-02T08:24:15.048Z,5.75
2023-04-02T08:26:45.478Z,6.97
2023-04-02T08:29:16.273Z,6.07
2023-04-02T08:31:47.961Z,5.55
2023-04-02T08:34:17.136Z,5.25
2023-04-02T08:36:46.752Z,6.15
2023-04-02T08:39:17.897Z,6.53
2023-04-02T08:41:57.053Z,7.10
2023-04-02T08:44:48.827Z,8.73
2023-04-02T08:47:18.998Z,8.30
2023-04-02T08:49:52.601Z,7.85
2023-04-02T08:52:26.054Z,6.50
2023-04-02T08:54:56.334Z,8.95
2023-04-02T08:57:48.342Z,8.68
2023-04-02T09:00:22.094Z,8.80
2023-04-02T09:03:04.867Z,8.65
2023-04-02T09:05:35.989Z,8.18
2023-04-02T09:08:06.289Z,8.85
2023-04-02T09:10:41.625Z,7.93
2023-04-02T09:13:31.399Z,7.55
2023-04-02T09:16:05.078Z,8.73
2023-04-02T09:18:35.554Z,9.38
2023-04-02T09:21:17.330Z,9.63
2023-04-02T09:23:45.579Z,8.90
2023-04-02T09:26:22.038Z,8.65
2023-04-02T09:29:00.640Z,7.75
2023-04-02T09:31:37.620Z,7.95
2023-04-02T09:34:26.130Z,8.55
2023-04-02T09:36:54.467Z,7.80
2023-04-02T09:39:26.895Z,6.68
2023-04-02T09:42:05.192Z,6.43
2023-04-02T09:44:36.753Z,5.65
2023-04-02T09:47:24.024Z,5.57
2023-04-02T09:49:52.661Z,6.50
2023-04-02T09:52:30.944Z,5.93
2023-04-02T09:55:09.521Z,6.78
2023-04-02T09:57:39.727Z,6.00
2023-04-02T10:00:25.366Z,5.90
2023-04-02T10:03:22.118Z,5.10
2023-04-02T10:06:04.418Z,5.00
2023-04-02T10:08:36.320Z,3.85
2023-04-02T10:11:07.341Z,3.38
2023-04-02T10:13:54.376Z,3.50
2023-04-02T10:16:32.963Z,4.32
2023-04-02T10:19:07.568Z,4.03
2023-04-02T10:21:38.281Z,4.22
2023-04-02T10:24:13.386Z,3.88
2023-04-02T10:26:47.719Z,4.13
2023-04-02T10:29:23.073Z,4.70
2023-04-02T10:31:56.998Z,3.50
2023-04-02T10:34:29.018Z,4.20
2023-04-02T10:36:59.143Z,4.22
2023-04-02T10:39:33.270Z,4.07
2023-04-02T10:42:12.227Z,4.40
2023-04-02T10:44:44.772Z,4.97
2023-04-02T10:47:18.648Z,4.00
2023-04-02T10:52:22.380Z,4.50
2023-04-02T10:54:53.700Z,4.80
2023-04-02T10:57:21.883Z,5.05
2023-04-02T11:00:10.278Z,4.45
2023-04-02T11:03:06.089Z,4.05
2023-04-02T11:05:46.845Z,3.78
2023-04-02T11:08:24.513Z,4.68
2023-04-02T11:10:54.969Z,4.15
2023-04-02T11:13:29.135Z,4.10
2023-04-02T11:15:57.441Z,3.72
2023-04-02T11:18:34.251Z,3.72
2023-04-02T11:21:04.093Z,3.50
2023-04-02T11:23:53.481Z,3.63
2023-04-02T11:26:30.637Z,3.60
2023-04-02T11:29:22.106Z,3.90
2023-04-02T11:31:51.574Z,3.45
2023-04-02T11:35:03.028Z,3.42
2023-04-02T11:37:43.882Z,4.05
2023-04-02T11:40:12.170Z,4.57
2023-04-02T11:42:40.904Z,4.45
2023-04-02T11:45:24.043Z,5.05
2023-04-02T11:48:00.938Z,4.27
2023-04-02T11:50:35.721Z,4.40
2023-04-02T11:53:20.766Z,4.70
2023-04-02T11:56:06.336Z,4.05
2023-04-02T11:59:04.509Z,3.63
2023-04-02T12:01:32.836Z,2.92
2023-04-02T12:04:19.739Z,4.28
2023-04-02T12:06:57.205Z,4.05
2023-04-02T12:09:36.742Z,3.67
2023-04-02T12:12:16.877Z,4.07
2023-04-02T12:15:05.196Z,3.58
2023-04-02T12:17:39.152Z,3.35
2023-04-02T12:20:10.119Z,3.25
2023-04-02T12:22:42.064Z,3.20
2023-04-02T12:25:22.061Z,3.35
2023-04-02T12:28:04.200Z,3.00
2023-04-02T12:30:34.503Z,3.40
2023-04-02T12:33:23.116Z,3.47
2023-04-02T12:35:57.265Z,4.00
2023-04-02T12:38:29.800Z,2.50
2023-04-02T12:40:59.608Z,3.10
2023-04-02T12:43:32.896Z,3.33
2023-04-02T12:46:02.351Z,2.67
2023-04-02T12:48:32.799Z,3.08
2023-04-02T12:51:02.368Z,2.55
2023-04-02T12:53:37.090Z,2.70
2023-04-02T12:56:05.837Z,3.42
2023-04-02T12:58:39.970Z,2.85
2023-04-02T13:01:15.015Z,3.13
2023-04-02T13:04:00.028Z,3.03
2023-04-02T13:06:30.494Z,2.38
2023-04-02T13:09:00.333Z,2.30
2023-04-02T13:11:41.359Z,2.75
2023-04-02T13:14:17.788Z,2.78
2023-04-02T13:16:47.093Z,2.50
2023-04-02T13:19:19.135Z,2.30
2023-04-02T13:21:47.443Z,2.83
2023-04-02T13:24:23.179Z,2.47
2023-04-02T13:26:52.470Z,2.47
2023-04-02T13:29:22.409Z,2.75
2023-04-02T13:31:53.547Z,2.90
2023-04-02T13:34:22.979Z,3.03
2023-04-02T13:36:53.974Z,2.85
2023-04-02T13:39:22.663Z,2.35
2023-04-02T13:41:53.653Z,2.67
2023-04-02T13:44:24.100Z,2.88
2023-04-02T13:46:53.836Z,3.20
2023-04-02T13:49:22.989Z,2.70
2023-04-02T13:51:53.760Z,3.08
2023-04-02T13:54:33.796Z,2.88
2023-04-02T13:57:06.022Z,2.40
2023-04-02T13:59:36.548Z,2.58
2023-04-02T14:02:08.469Z,2.45
2023-04-02T14:04:41.214Z,1.90
2023-04-02T14:07:12.117Z,2.20
2023-04-02T14:09:48.164Z,1.83
2023-04-02T14:12:38.331Z,1.83
2023-04-02T14:15:06.587Z,2.13
2023-04-02T14:17:47.602Z,2.22
2023-04-02T14:20:26.233Z,2.10
2023-04-02T14:23:15.370Z,2.60
2023-04-02T14:25:50.994Z,2.50
2023-04-02T14:28:38.086Z,2.60
2023-04-02T14:31:12.511Z,2.22
2023-04-02T14:33:48.493Z,2.08
2023-04-02T14:36:27.678Z,2.35
2023-04-02T14:38:57.185Z,1.80
2023-04-02T14:41:37.593Z,2.13
2023-04-02T14:44:08.265Z,2.38
2023-04-02T14:46:42.028Z,1.90
2023-04-02T14:49:16.642Z,2.40
2023-04-02T14:51:55.090Z,2.28
2023-04-02T14:54:37.372Z,2.40
2023-04-02T14:57:09.028Z,2.40
2023-04-02T14:59:44.026Z,2.58
2023-04-02T15:02:15.049Z,2.13
2023-04-02T15:07:27.270Z,2.10
2023-04-02T15:10:20.218Z,2.35
2023-04-02T15:12:49.962Z,1.67
2023-04-02T15:15:29.701Z,2.05
2023-04-02T15:18:02.685Z,2.30
2023-04-02T15:20:38.106Z,2.17
2023-04-02T15:23:18.026Z,2.38
2023-04-02T15:25:51.927Z,2.22
2023-04-02T15:28:32.112Z,2.47
2023-04-02T15:31:07.284Z,2.60
2023-04-02T15:33:45.588Z,2.83
2023-04-02T15:36:32.708Z,3.20
2023-04-02T15:39:05.315Z,3.38
2023-04-02T15:41:38.578Z,3.22
2023-04-02T15:44:06.735Z,3.40
2023-04-02T15:46:53.022Z,2.90
2023-04-02T15:49:42.687Z,2.63
2023-04-02T15:52:13.697Z,2.45
2023-04-02T15:55:02.727Z,2.33
2023-04-02T15:57:46.495Z,1.92
2023-04-02T16:00:16.667Z,1.77
2023-04-02T16:02:50.100Z,1.70
2023-04-02T16:05:27.443Z,1.30
2023-04-02T16:07:58.797Z,1.50
2023-04-02T16:10:43.008Z,1.88
2023-04-02T16:13:22.833Z,1.52
2023-04-02T16:16:11.438Z,1.75
2023-04-02T16:18:44.377Z,1.58
2023-04-02T16:21:16.951Z,1.70
2023-04-02T16:23:45.971Z,1.85
2023-04-02T16:26:14.128Z,1.63
2023-04-02T16:28:51.417Z,1.90
2023-04-02T16:31:38.335Z,2.42
2023-04-02T16:34:06.400Z,1.90
2023-04-02T16:36:47.325Z,2.30
2023-04-02T16:39:15.437Z,2.30
2023-04-02T16:41:51.216Z,2.00
2023-04-02T16:44:19.661Z,1.92
2023-04-02T16:47:05.102Z,2.22
2023-04-02T16:49:48.861Z,1.73
2023-04-02T16:52:32.257Z,1.50
2023-04-02T16:55:05.647Z,1.88
2023-04-02T16:57:37.230Z,1.75
2023-04-02T17:00:11.852Z,2.30
2023-04-02T17:02:46.372Z,1.90
2023-04-02T17:05:31.147Z,1.60
2023-04-02T17:08:01.759Z,2.15
2023-04-02T17:10:31.667Z,1.83
2023-04-02T17:13:11.954Z,2.30
2023-04-02T17:15:40.677Z,2.25
2023-04-02T17:18:14.682Z,1.73
2023-04-02T17:20:43.367Z,2.20
2023-04-02T17:23:15.452Z,2.15
2023-04-02T17:26:10.979Z,2.20
2023-04-02T17:28:40.237Z,1.80
2023-04-02T17:31:14.693Z,1.55
2023-04-02T17:33:42.971Z,2.05
2023-04-02T17:36:14.912Z,1.80
2023-04-02T17:38:43.661Z,2.38
2023-04-02T17:41:38.568Z,1.85
2023-04-02T17:44:26.829Z,2.08
2023-04-02T17:47:16.268Z,2.00
2023-04-02T17:50:05.872Z,2.00
2023-04-02T17:52:39.954Z,2.30
2023-04-02T17:55:17.379Z,2.33
2023-04-02T17:57:52.350Z,2.10
2023-04-02T18:00:20.414Z,1.40
2023-04-02T18:03:09.349Z,1.80
2023-04-02T18:05:49.015Z,1.33
2023-04-02T18:08:26.032Z,1.70
2023-04-02T18:11:03.374Z,1.33
2023-04-02T18:13:34.910Z,1.52
2023-04-02T18:16:15.501Z,1.65
2023-04-02T18:18:45.989Z,1.48
2023-04-02T18:21:32.290Z,1.60
2023-04-02T18:24:10.294Z,1.25
2023-04-02T18:26:51.156Z,1.50
2023-04-02T18:29:29.275Z,1.58
2023-04-02T18:32:14.644Z,1.83
2023-04-02T18:35:04.115Z,1.23
2023-04-02T18:37:38.345Z,1.50
2023-04-02T18:40:16.866Z,1.45
2023-04-02T18:42:47.881Z,1.42
2023-04-02T18:45:16.109Z,1.40
2023-04-02T18:47:48.723Z,1.38
2023-04-02T18:50:28.939Z,1.40
2023-04-02T18:53:02.894Z,1.30
2023-04-02T18:58:23.937Z,1.38
2023-04-02T19:00:58.265Z,1.43
2023-04-02T19:03:29.697Z,1.33
2023-04-02T19:06:03.320Z,2.10
2023-04-02T19:08:35.365Z,1.30
2023-04-02T19:11:15.700Z,1.60
2023-04-02T19:13:45.068Z,1.65
2023-04-02T19:16:16.651Z,1.95
2023-04-02T19:18:45.098Z,1.70
2023-04-02T19:21:15.771Z,1.85
2023-04-02T19:23:57.140Z,1.85
2023-04-02T19:26:36.434Z,2.05
2023-04-02T19:29:04.441Z,1.88
2023-04-02T19:31:49.909Z,1.80
2023-04-02T19:34:24.616Z,1.95
2023-04-02T19:36:57.057Z,1.40
2023-04-02T19:39:46.557Z,2.35
2023-04-02T19:42:20.977Z,2.45
2023-04-02T19:44:51.381Z,1.85
2023-04-02T19:47:19.938Z,2.10
2023-04-02T19:49:48.229Z,2.70
2023-04-02T19:52:19.464Z,2.55
2023-04-02T19:54:47.756Z,2.35
2023-04-02T19:57:19.413Z,2.00
2023-04-02T19:59:47.981Z,3.72
2023-04-02T20:02:18.668Z,2.95
2023-04-02T20:04:47.395Z,2.65
2023-04-02T20:07:21.629Z,3.03
2023-04-02T20:09:50.072Z,2.67
2023-04-02T20:12:18.511Z,1.98
2023-04-02T20:14:49.211Z,1.95
2023-04-02T20:17:17.817Z,2.00
2023-04-02T20:19:46.478Z,2.20
2023-04-02T20:22:15.374Z,3.15
2023-04-02T20:24:44.293Z,2.85
2023-04-02T20:27:13.213Z,2.47
2023-04-02T20:29:42.776Z,3.67
2023-04-02T20:32:12.867Z,2.97
2023-04-02T20:34:41.693Z,2.67
2023-04-02T20:37:11.062Z,2.97
2023-04-02T20:39:39.831Z,3.70
2023-04-02T20:42:14.361Z,3.03
2023-04-02T20:44:43.032Z,3.03
2023-04-02T20:47:12.397Z,2.90
2023-04-02T20:49:43.637Z,2.70
2023-04-02T20:52:12.674Z,2.72
2023-04-02T20:54:43.313Z,2.95
2023-04-02T20:57:14.870Z,2.20
2023-04-02T20:59:43.754Z,2.63
2023-04-02T21:02:12.709Z,2.88
2023-04-02T21:04:44.899Z,2.20
2023-04-02T21:07:13.687Z,2.42
2023-04-02T21:09:44.362Z,3.00
2023-04-02T21:12:15.999Z,2.25
2023-04-02T21:14:45.412Z,2.60
2023-04-02T21:17:14.350Z,2.30
2023-04-02T21:19:43.358Z,2.45
2023-04-02T21:22:14.896Z,2.42
2023-04-02T21:24:43.261Z,2.40
2023-04-02T21:27:11.514Z,2.90
2023-04-02T21:29:39.917Z,2.30
2023-04-02T21:32:20.272Z,2.03
2023-04-02T21:34:50.709Z,2.40
2023-04-02T21:37:19.922Z,2.35
2023-04-02T21:39:48.410Z,2.10
2023-04-02T21:42:19.984Z,2.55
2023-04-02T21:44:48.765Z,3.00
2023-04-02T21:47:17.855Z,3.92
2023-04-02T21:49:47.012Z,4.40
2023-04-02T21:52:15.533Z,5.63
2023-04-02T21:54:46.413Z,4.88
2023-04-02T21:57:15.182Z,6.18
2023-04-02T21:59:44.673Z,6.32
2023-04-02T22:02:15.423Z,7.45
2023-04-02T22:04:46.741Z,5.65
2023-04-02T22:07:15.488Z,5.47
2023-04-02T22:09:43.742Z,4.85
2023-04-02T22:12:15.236Z,5.57
2023-04-02T22:14:48.348Z,5.47
2023-04-02T22:17:17.417Z,4.90
2023-04-02T22:19:46.225Z,4.15
2023-04-02T22:22:15.349Z,4.68
2023-04-02T22:24:43.688Z,3.30
2023-04-02T22:27:14.903Z,3.58
2023-04-02T22:29:45.731Z,3.35
2023-04-02T22:32:14.661Z,2.90
2023-04-02T22:34:46.103Z,2.85
2023-04-02T22:37:14.804Z,3.05
2023-04-02T22:39:45.734Z,2.95
2023-04-02T22:42:17.052Z,3.50
2023-04-02T22:44:49.743Z,2.38
2023-04-02T22:47:21.596Z,3.50
2023-04-02T22:49:49.892Z,2.95
2023-04-02T22:52:21.037Z,2.97
2023-04-02T22:54:49.391Z,3.65
2023-04-02T22:57:20.881Z,3.25
2023-04-02T22:59:49.463Z,3.65
2023-04-02T23:02:21.107Z,4.03
2023-04-02T23:04:50.532Z,3.30
2023-04-02T23:07:19.615Z,3.80
2023-04-02T23:09:49.830Z,4.38
2023-04-02T23:12:21.165Z,3.95
2023-04-02T23:14:52.677Z,4.35
2023-04-02T23:17:23.887Z,3.97
2023-04-02T23:19:52.381Z,4.35
2023-04-02T23:22:21.657Z,4.15
2023-04-02T23:24:50.327Z,3.97
2023-04-02T23:27:18.926Z,4.05
2023-04-02T23:29:47.863Z,4.05
2023-04-02T23:32:19.473Z,4.05
2023-04-02T23:34:48.103Z,4.07
2023-04-02T23:37:17.387Z,4.03
2023-04-02T23:39:46.094Z,4.10
2023-04-02T23:42:17.578Z,4.20
2023-04-02T23:44:46.139Z,4.47
2023-04-02T23:47:14.607Z,3.88
2023-04-02T23:49:47.764Z,4.15
2023-04-02T23:52:16.667Z,4.25
2023-04-02T23:54:46.281Z,4.43
2023-04-02T23:57:17.195Z,3.75
2023-04-02T23:59:46.561Z,3.95
